createdAt,value
2023-01-15T00:02:04.207Z,2.30
2023-01-15T00:04:31.112Z,2.53
2023-01-15T00:06:58.005Z,1.95
2023-01-15T00:09:24.866Z,2.08
2023-01-15T00:11:51.676Z,2.20
2023-01-15T00:14:18.477Z,2.30
2023-01-15T00:16:45.389Z,2.47
2023-01-15T00:19:12.342Z,2.20
2023-01-15T00:21:39.223Z,2.20
2023-01-15T00:24:06.310Z,1.93
2023-01-15T00:26:34.031Z,2.03
2023-01-15T00:29:00.880Z,2.10
2023-01-15T00:31:29.379Z,2.17
2023-01-15T00:33:56.263Z,2.17
2023-01-15T00:36:23.293Z,2.13
2023-01-15T00:38:50.128Z,1.95
2023-01-15T00:41:17.160Z,2.35
2023-01-15T00:43:44.572Z,2.30
2023-01-15T00:46:13.924Z,1.98
2023-01-15T00:48:40.845Z,2.23
2023-01-15T00:51:07.767Z,1.80
2023-01-15T00:53:34.553Z,2.00
2023-01-15T00:56:01.534Z,2.00
2023-01-15T00:58:28.896Z,2.10
2023-01-15T01:00:59.413Z,2.30
2023-01-15T01:03:27.041Z,2.10
2023-01-15T01:05:54.003Z,2.00
2023-01-15T01:08:21.064Z,2.50
2023-01-15T01:10:47.934Z,1.90
2023-01-15T01:13:15.701Z,2.00
2023-01-15T01:15:42.667Z,2.50
2023-01-15T01:18:09.597Z,1.92
2023-01-15T01:20:38.345Z,2.38
2023-01-15T01:23:05.491Z,1.98
2023-01-15T01:25:32.316Z,2.07
2023-01-15T01:27:59.157Z,1.90
2023-01-15T01:30:27.177Z,2.03
2023-01-15T01:32:53.994Z,2.28
2023-01-15T01:35:20.848Z,2.10
2023-01-15T01:37:52.099Z,1.83
2023-01-15T01:40:19.520Z,2.00
2023-01-15T01:42:46.445Z,1.80
2023-01-15T01:45:26.742Z,2.03
2023-01-15T01:48:03.209Z,2.72
2023-01-15T01:50:32.050Z,2.40
2023-01-15T01:53:07.495Z,2.30
2023-01-15T01:55:36.887Z,2.30
2023-01-15T01:58:07.724Z,2.67
2023-01-15T02:00:36.388Z,2.00
2023-01-15T02:03:08.038Z,2.10
2023-01-15T02:05:40.088Z,1.92
2023-01-15T02:08:07.768Z,1.98
2023-01-15T02:10:35.139Z,1.80
2023-01-15T02:13:11.100Z,1.90
2023-01-15T02:15:45.690Z,2.37
2023-01-15T02:18:30.091Z,2.10
2023-01-15T02:21:20.801Z,2.25
2023-01-15T02:23:59.692Z,2.00
2023-01-15T02:26:46.672Z,2.30
2023-01-15T02:29:42.812Z,1.93
2023-01-15T02:32:16.368Z,2.40
2023-01-15T02:34:54.032Z,2.28
2023-01-15T02:37:28.088Z,2.13
2023-01-15T02:39:57.372Z,2.10
2023-01-15T02:42:28.273Z,2.10
2023-01-15T02:44:58.485Z,1.70
2023-01-15T02:47:29.354Z,2.10
2023-01-15T02:50:02.496Z,1.92
2023-01-15T02:52:42.286Z,2.20
2023-01-15T02:55:32.916Z,2.17
2023-01-15T02:58:05.054Z,1.80
2023-01-15T03:00:39.156Z,2.03
2023-01-15T03:03:36.587Z,1.90
2023-01-15T03:06:22.382Z,1.92
2023-01-15T03:08:49.411Z,2.00
2023-01-15T03:11:19.342Z,1.98
2023-01-15T03:14:13.424Z,2.10
2023-01-15T03:16:49.655Z,2.03
2023-01-15T03:19:35.991Z,2.17
2023-01-15T03:22:26.495Z,2.00
2023-01-15T03:25:00.266Z,2.17
2023-01-15T03:27:28.916Z,2.15
2023-01-15T03:30:19.129Z,2.00
2023-01-15T03:32:47.295Z,2.28
2023-01-15T03:35:44.934Z,1.80
2023-01-15T03:38:19.741Z,1.90
2023-01-15T03:40:58.371Z,2.00
2023-01-15T03:43:55.008Z,2.00
2023-01-15T03:46:32.907Z,2.10
2023-01-15T03:49:37.099Z,1.93
2023-01-15T03:52:15.264Z,1.98
2023-01-15T03:55:09.141Z,1.70
2023-01-15T03:57:51.275Z,1.50
2023-01-15T04:00:56.030Z,2.20
2023-01-15T04:03:28.615Z,1.77
2023-01-15T04:06:00.251Z,1.85
2023-01-15T04:08:32.908Z,1.83
2023-01-15T04:11:01.843Z,2.10
2023-01-15T04:13:32.362Z,1.55
2023-01-15T04:16:01.098Z,1.70
2023-01-15T04:18:28.408Z,1.80
2023-01-15T04:20:55.279Z,1.30
2023-01-15T04:23:23.505Z,1.80
2023-01-15T04:25:50.290Z,1.88
2023-01-15T04:28:17.109Z,1.97
2023-01-15T04:30:44.163Z,1.60
2023-01-15T04:33:11.741Z,1.85
2023-01-15T04:35:39.149Z,1.88
2023-01-15T04:38:06.026Z,1.40
2023-01-15T04:40:32.851Z,1.57
2023-01-15T04:42:59.623Z,1.60
2023-01-15T04:45:26.573Z,1.38
2023-01-15T04:47:53.404Z,1.52
2023-01-15T04:50:20.273Z,1.42
2023-01-15T04:52:47.156Z,1.47
2023-01-15T04:55:14.143Z,1.45
2023-01-15T04:57:40.932Z,1.42
2023-01-15T05:00:08.536Z,1.45
2023-01-15T05:02:35.553Z,1.65
2023-01-15T05:05:02.634Z,1.20
2023-01-15T05:07:29.392Z,1.50
2023-01-15T05:09:56.215Z,1.80
2023-01-15T05:12:22.997Z,1.60
2023-01-15T05:14:49.803Z,1.60
2023-01-15T05:17:16.589Z,1.43
2023-01-15T05:19:44.187Z,1.50
2023-01-15T05:22:11.088Z,1.38
2023-01-15T05:24:38.035Z,1.23
2023-01-15T05:27:04.844Z,1.30
2023-01-15T05:29:32.338Z,1.03
2023-01-15T05:31:59.147Z,1.20
2023-01-15T05:34:25.949Z,1.23
2023-01-15T05:36:53.608Z,1.08
2023-01-15T05:39:20.423Z,1.23
2023-01-15T05:41:47.231Z,0.90
2023-01-15T05:44:14.952Z,1.48
2023-01-15T05:46:44.318Z,1.08
2023-01-15T05:49:14.008Z,1.30
2023-01-15T05:51:41.009Z,1.35
2023-01-15T05:54:11.907Z,1.10
2023-01-15T05:56:39.600Z,1.20
2023-01-15T05:59:07.448Z,1.23
2023-01-15T06:01:34.916Z,1.20
2023-01-15T06:04:03.925Z,1.33
2023-01-15T06:06:31.121Z,0.93
2023-01-15T06:08:58.167Z,1.10
2023-01-15T06:11:25.810Z,1.30
2023-01-15T06:13:52.740Z,1.45
2023-01-15T06:16:20.102Z,1.10
2023-01-15T06:18:47.220Z,1.00
2023-01-15T06:21:15.325Z,1.10
2023-01-15T06:23:42.977Z,1.13
2023-01-15T06:26:18.571Z,1.20
2023-01-15T06:28:46.314Z,1.23
2023-01-15T06:31:15.833Z,1.20
2023-01-15T06:33:42.848Z,1.00
2023-01-15T06:36:16.012Z,1.15
2023-01-15T06:38:43.973Z,1.05
2023-01-15T06:41:14.834Z,1.38
2023-01-15T06:43:41.627Z,1.10
2023-01-15T06:46:09.806Z,1.13
2023-01-15T06:48:36.621Z,1.60
2023-01-15T06:51:03.526Z,1.30
2023-01-15T06:53:30.420Z,0.90
2023-01-15T06:55:57.326Z,1.30
2023-01-15T06:58:24.075Z,1.25
2023-01-15T07:00:50.993Z,1.02
2023-01-15T07:03:17.848Z,1.10
2023-01-15T07:05:44.635Z,1.20
2023-01-15T07:08:11.449Z,1.20
2023-01-15T07:10:38.317Z,1.10
2023-01-15T07:13:05.099Z,1.38
2023-01-15T07:15:31.937Z,1.08
2023-01-15T07:17:58.821Z,1.25
2023-01-15T07:20:25.670Z,1.30
2023-01-15T07:22:53.013Z,1.00
2023-01-15T07:25:19.868Z,1.33
2023-01-15T07:27:47.263Z,1.08
2023-01-15T07:30:14.506Z,1.42
2023-01-15T07:32:42.029Z,1.27
2023-01-15T07:35:10.304Z,1.52
2023-01-15T07:37:37.171Z,1.30
2023-01-15T07:40:05.290Z,1.23
2023-01-15T07:42:32.130Z,1.25
2023-01-15T07:44:58.982Z,1.40
2023-01-15T07:47:27.317Z,1.35
2023-01-15T07:49:54.362Z,1.60
2023-01-15T07:52:22.687Z,1.50
2023-01-15T07:54:50.571Z,1.30
2023-01-15T07:57:21.219Z,1.57
2023-01-15T07:59:49.088Z,1.50
2023-01-15T08:02:15.973Z,1.50
2023-01-15T08:04:43.023Z,1.40
2023-01-15T08:07:10.214Z,1.42
2023-01-15T08:09:37.116Z,1.77
2023-01-15T08:12:05.099Z,1.55
2023-01-15T08:14:32.041Z,1.60
2023-01-15T08:16:58.875Z,1.50
2023-01-15T08:19:25.757Z,1.05
2023-01-15T08:21:52.698Z,0.90
2023-01-15T08:24:19.741Z,1.10
2023-01-15T08:26:46.505Z,1.00
2023-01-15T08:29:13.356Z,1.00
2023-01-15T08:31:40.318Z,1.00
2023-01-15T08:34:08.140Z,0.77
2023-01-15T08:36:35.113Z,0.95
2023-01-15T08:39:02.035Z,1.08
2023-01-15T08:41:28.952Z,0.88
2023-01-15T08:43:55.749Z,1.00
2023-01-15T08:46:22.669Z,1.03
2023-01-15T08:48:49.601Z,0.80
2023-01-15T08:51:16.551Z,1.05
2023-01-15T08:53:43.349Z,0.75
2023-01-15T08:56:19.084Z,0.88
2023-01-15T08:58:46.942Z,0.73
2023-01-15T09:01:13.900Z,0.80
2023-01-15T09:03:40.784Z,0.70
2023-01-15T09:06:07.607Z,0.90
2023-01-15T09:08:34.833Z,0.70
2023-01-15T09:11:03.473Z,0.90
2023-01-15T09:13:30.698Z,0.70
2023-01-15T09:16:01.609Z,1.05
2023-01-15T09:18:28.571Z,0.80
2023-01-15T09:20:55.385Z,0.80
2023-01-15T09:23:22.634Z,0.90
2023-01-15T09:25:58.550Z,0.98
2023-01-15T09:28:25.434Z,0.80
2023-01-15T09:30:52.332Z,1.10
2023-01-15T09:33:19.239Z,1.30
2023-01-15T09:35:47.283Z,1.00
2023-01-15T09:38:19.162Z,1.00
2023-01-15T09:40:55.590Z,0.93
2023-01-15T09:43:50.711Z,0.90
2023-01-15T09:46:24.531Z,1.13
2023-01-15T09:49:16.478Z,1.10
2023-01-15T09:52:06.174Z,1.20
2023-01-15T09:54:33.757Z,0.93
2023-01-15T09:57:01.396Z,1.10
2023-01-15T09:59:34.743Z,1.00
2023-01-15T10:02:13.148Z,1.10
2023-01-15T10:04:51.228Z,0.82
2023-01-15T10:07:22.993Z,0.82
2023-01-15T10:09:59.949Z,1.10
2023-01-15T10:12:29.797Z,0.90
2023-01-15T10:15:04.903Z,1.13
2023-01-15T10:17:48.541Z,1.10
2023-01-15T10:20:36.645Z,0.80
2023-01-15T10:23:32.143Z,1.00
2023-01-15T10:26:15.710Z,1.00
2023-01-15T10:29:11.814Z,0.90
2023-01-15T10:31:47.709Z,1.35
2023-01-15T10:34:40.571Z,1.10
2023-01-15T10:37:20.482Z,1.08
2023-01-15T10:40:19.075Z,1.40
2023-01-15T10:42:58.265Z,1.47
2023-01-15T10:45:30.072Z,1.38
2023-01-15T10:48:12.136Z,1.20
2023-01-15T10:50:38.907Z,1.35
2023-01-15T10:53:34.275Z,1.40
2023-01-15T10:56:13.223Z,1.13
2023-01-15T10:58:50.774Z,1.55
2023-01-15T11:01:21.319Z,1.50
2023-01-15T11:03:48.253Z,1.38
2023-01-15T11:06:22.380Z,1.60
2023-01-15T11:09:12.860Z,0.80
2023-01-15T11:14:17.084Z,1.00
2023-01-15T11:16:44.358Z,1.40
2023-01-15T11:19:40.104Z,1.48
2023-01-15T11:22:18.251Z,1.50
2023-01-15T11:24:48.260Z,1.40
2023-01-15T11:27:18.305Z,1.50
2023-01-15T11:29:46.280Z,1.63
2023-01-15T11:32:43.116Z,1.55
2023-01-15T11:35:18.679Z,1.47
2023-01-15T11:37:45.579Z,1.60
2023-01-15T11:40:21.521Z,1.90
2023-01-15T11:42:51.922Z,1.40
2023-01-15T11:45:21.640Z,1.60
2023-01-15T11:47:55.576Z,1.73
2023-01-15T11:50:22.444Z,2.05
2023-01-15T11:52:53.106Z,2.30
2023-01-15T11:55:22.223Z,1.55
2023-01-15T11:57:51.089Z,1.90
2023-01-15T12:00:28.387Z,1.90
2023-01-15T12:03:00.726Z,1.80
2023-01-15T12:05:31.436Z,1.63
2023-01-15T12:08:02.918Z,1.92
2023-01-15T12:10:41.560Z,1.48
2023-01-15T12:13:14.315Z,1.70
2023-01-15T12:15:57.363Z,2.03
2023-01-15T12:19:06.206Z,1.80
2023-01-15T12:21:47.979Z,1.85
2023-01-15T12:24:14.772Z,1.70
2023-01-15T12:27:13.693Z,1.57
2023-01-15T12:29:48.986Z,1.50
2023-01-15T12:32:24.894Z,2.10
2023-01-15T12:35:07.145Z,1.88
2023-01-15T12:37:46.644Z,1.52
2023-01-15T12:40:28.252Z,1.50
2023-01-15T12:42:57.010Z,1.60
2023-01-15T12:45:31.833Z,1.90
2023-01-15T12:48:16.287Z,2.00
2023-01-15T12:50:54.194Z,1.73
2023-01-15T12:54:04.194Z,1.93
2023-01-15T12:57:08.497Z,2.10
2023-01-15T12:59:47.970Z,1.88
2023-01-15T13:02:27.729Z,2.03
2023-01-15T13:05:12.883Z,1.88
2023-01-15T13:08:01.617Z,1.90
2023-01-15T13:10:31.647Z,2.10
2023-01-15T13:13:19.165Z,2.00
2023-01-15T13:16:03.350Z,2.03
2023-01-15T13:18:40.223Z,2.38
2023-01-15T13:21:14.675Z,2.67
2023-01-15T13:23:58.305Z,2.28
2023-01-15T13:26:53.017Z,2.67
2023-01-15T13:29:41.349Z,2.40
2023-01-15T13:32:29.400Z,2.50
2023-01-15T13:35:06.600Z,2.53
2023-01-15T13:37:43.729Z,3.00
2023-01-15T13:40:29.289Z,3.03
2023-01-15T13:42:57.376Z,3.13
2023-01-15T13:45:38.636Z,2.92
2023-01-15T13:48:11.781Z,3.00
2023-01-15T13:50:51.104Z,3.28
2023-01-15T13:53:37.288Z,2.90
2023-01-15T13:56:12.302Z,3.50
2023-01-15T13:58:57.569Z,3.17
2023-01-15T14:01:34.557Z,3.17
2023-01-15T14:04:12.601Z,3.85
2023-01-15T14:06:46.061Z,3.20
2023-01-15T14:09:19.138Z,3.40
2023-01-15T14:11:55.288Z,3.42
2023-01-15T14:14:34.431Z,3.17
2023-01-15T14:17:14.624Z,2.80
2023-01-15T14:19:50.044Z,2.50
2023-01-15T14:22:35.775Z,2.40
2023-01-15T14:25:35.356Z,2.47
2023-01-15T14:28:39.455Z,2.37
2023-01-15T14:31:09.272Z,2.55
2023-01-15T14:33:41.996Z,2.90
2023-01-15T14:36:19.194Z,3.00
2023-01-15T14:38:55.781Z,2.80
2023-01-15T14:41:35.350Z,2.40
2023-01-15T14:44:03.618Z,2.55
2023-01-15T14:46:33.311Z,2.00
2023-01-15T14:49:03.949Z,2.83
2023-01-15T14:51:34.756Z,2.50
2023-01-15T14:54:08.962Z,2.60
2023-01-15T14:56:42.510Z,2.70
2023-01-15T14:59:26.532Z,3.20
2023-01-15T15:02:20.836Z,3.70
2023-01-15T15:04:56.407Z,4.15
2023-01-15T15:07:26.309Z,4.97
2023-01-15T15:10:03.118Z,3.95
2023-01-15T15:12:35.925Z,3.80
2023-01-15T15:15:29.064Z,3.35
2023-01-15T15:18:03.561Z,2.28
2023-01-15T15:20:42.658Z,2.50
2023-01-15T15:23:42.629Z,2.72
2023-01-15T15:26:27.894Z,2.42
2023-01-15T15:28:58.125Z,2.60
2023-01-15T15:31:26.966Z,2.67
2023-01-15T15:33:56.522Z,2.50
2023-01-15T15:36:26.918Z,2.50
2023-01-15T15:38:56.664Z,2.30
2023-01-15T15:41:37.565Z,2.33
2023-01-15T15:44:11.738Z,1.98
2023-01-15T15:46:38.866Z,0.93
2023-01-15T15:49:08.120Z,0.60
2023-01-15T15:51:39.482Z,0.50
2023-01-15T15:54:25.040Z,0.30
2023-01-15T15:57:13.845Z,0.17
2023-01-15T15:59:52.163Z,0.10
2023-01-15T16:02:24.297Z,0.00
2023-01-15T16:04:54.689Z,0.10
2023-01-15T16:07:30.796Z,0.00
2023-01-15T16:10:14.039Z,0.00
2023-01-15T16:13:05.607Z,0.00
2023-01-15T16:15:38.635Z,0.00
2023-01-15T16:18:31.356Z,0.00
2023-01-15T16:20:59.215Z,0.00
2023-01-15T16:23:28.850Z,0.00
2023-01-15T16:26:05.558Z,0.00
2023-01-15T16:28:39.353Z,0.00
2023-01-15T16:31:07.158Z,0.00
2023-01-15T16:33:35.703Z,0.10
2023-01-15T16:36:03.854Z,0.00
2023-01-15T16:38:39.285Z,0.00
2023-01-15T16:41:06.765Z,0.00
2023-01-15T16:44:00.170Z,0.00
2023-01-15T16:46:32.518Z,0.00
2023-01-15T16:49:18.503Z,0.00
2023-01-15T16:51:46.231Z,0.00
2023-01-15T16:54:32.256Z,0.00
2023-01-15T16:57:05.750Z,0.00
2023-01-15T16:59:33.396Z,0.00
2023-01-15T17:02:19.727Z,0.00
2023-01-15T17:04:48.640Z,0.00
2023-01-15T17:07:30.951Z,0.00
2023-01-15T17:10:00.309Z,0.00
2023-01-15T17:12:30.592Z,0.00
2023-01-15T17:15:16.839Z,0.00
2023-01-15T17:17:46.530Z,0.00
2023-01-15T17:20:15.474Z,0.00
2023-01-15T17:22:45.480Z,0.00
2023-01-15T17:25:32.775Z,0.00
2023-01-15T17:28:04.036Z,0.00
2023-01-15T17:30:33.915Z,0.00
2023-01-15T17:33:05.843Z,0.00
2023-01-15T17:35:38.805Z,0.00
2023-01-15T17:38:06.456Z,0.00
2023-01-15T17:40:35.165Z,0.00
2023-01-15T17:43:03.708Z,0.00
2023-01-15T17:45:34.404Z,0.00
2023-01-15T17:48:02.287Z,0.00
2023-01-15T17:50:29.440Z,0.00
2023-01-15T17:52:57.235Z,0.00
2023-01-15T17:55:25.280Z,0.00
2023-01-15T17:57:52.915Z,0.00
2023-01-15T18:00:20.870Z,0.00
2023-01-15T18:02:48.671Z,0.00
2023-01-15T18:05:16.037Z,0.00
2023-01-15T18:07:45.649Z,0.00
2023-01-15T18:10:14.968Z,0.00
2023-01-15T18:12:42.734Z,0.00
2023-01-15T18:15:12.233Z,0.00
2023-01-15T18:17:39.474Z,0.00
2023-01-15T18:20:07.805Z,0.00
2023-01-15T18:22:35.443Z,0.00
2023-01-15T18:25:02.866Z,0.00
2023-01-15T18:27:30.611Z,0.00
2023-01-15T18:29:58.912Z,0.00
2023-01-15T18:32:31.845Z,0.00
2023-01-15T18:35:00.167Z,0.00
2023-01-15T18:37:27.614Z,0.00
2023-01-15T18:39:56.312Z,0.00
2023-01-15T18:42:24.903Z,0.00
2023-01-15T18:44:52.807Z,0.00
2023-01-15T18:47:21.035Z,0.00
2023-01-15T18:49:48.585Z,0.00
2023-01-15T18:52:16.913Z,0.00
2023-01-15T18:54:44.837Z,0.00
2023-01-15T18:57:12.435Z,0.00
2023-01-15T18:59:41.178Z,0.00
2023-01-15T19:02:08.677Z,0.00
2023-01-15T19:04:36.513Z,0.00
2023-01-15T19:07:04.274Z,0.00
2023-01-15T19:09:32.051Z,0.00
2023-01-15T19:11:59.823Z,0.00
2023-01-15T19:14:29.341Z,0.00
2023-01-15T19:16:56.978Z,0.00
2023-01-15T19:19:29.363Z,0.00
2023-01-15T19:21:56.989Z,0.00
2023-01-15T19:24:24.811Z,0.00
2023-01-15T19:26:52.151Z,0.00
2023-01-15T19:29:20.271Z,0.00
2023-01-15T19:31:48.273Z,0.00
2023-01-15T19:34:33.084Z,0.00
2023-01-15T19:37:01.929Z,0.00
2023-01-15T19:39:32.175Z,0.00
2023-01-15T19:42:00.366Z,0.00
2023-01-15T19:44:28.427Z,0.00
2023-01-15T19:46:56.843Z,0.00
2023-01-15T19:49:24.913Z,0.00
2023-01-15T19:51:52.754Z,0.00
2023-01-15T19:54:20.039Z,0.22
2023-01-15T19:56:49.125Z,0.00
2023-01-15T19:59:16.538Z,0.00
2023-01-15T20:01:43.996Z,0.00
2023-01-15T20:04:11.598Z,0.00
2023-01-15T20:06:39.416Z,0.00
2023-01-15T20:09:10.349Z,0.00
2023-01-15T20:11:38.206Z,0.00
2023-01-15T20:14:06.158Z,0.00
2023-01-15T20:16:33.503Z,0.10
2023-01-15T20:19:02.396Z,0.35
2023-01-15T20:21:30.209Z,0.00
2023-01-15T20:23:57.780Z,0.00
2023-01-15T20:26:25.677Z,0.00
2023-01-15T20:28:53.813Z,0.00
2023-01-15T20:31:21.721Z,0.00
2023-01-15T20:33:50.317Z,0.00
2023-01-15T20:36:17.632Z,0.00
2023-01-15T20:38:45.316Z,0.00
2023-01-15T20:41:12.530Z,0.00
2023-01-15T20:43:40.264Z,0.00
2023-01-15T20:46:13.096Z,0.00
2023-01-15T20:48:40.826Z,0.00
2023-01-15T20:51:13.003Z,0.00
2023-01-15T20:53:40.277Z,0.00
2023-01-15T20:56:15.020Z,0.00
2023-01-15T20:58:43.256Z,0.13
2023-01-15T21:01:10.645Z,0.00
2023-01-15T21:03:40.482Z,0.00
2023-01-15T21:06:09.215Z,0.00
2023-01-15T21:08:36.902Z,0.00
2023-01-15T21:11:04.717Z,0.00
2023-01-15T21:13:32.478Z,0.00
2023-01-15T21:16:05.120Z,0.00
2023-01-15T21:18:33.738Z,0.00
2023-01-15T21:21:00.747Z,0.00
2023-01-15T21:23:27.965Z,0.00
2023-01-15T21:26:02.483Z,0.00
2023-01-15T21:28:30.457Z,0.00
2023-01-15T21:30:58.212Z,0.00
2023-01-15T21:33:25.470Z,0.00
2023-01-15T21:35:52.446Z,0.00
2023-01-15T21:38:19.216Z,0.00
2023-01-15T21:40:46.100Z,0.00
2023-01-15T21:43:12.845Z,0.00
2023-01-15T21:45:39.669Z,0.00
2023-01-15T21:48:06.625Z,0.00
2023-01-15T21:50:33.447Z,0.00
2023-01-15T21:53:01.601Z,0.00
2023-01-15T21:55:28.420Z,0.00
2023-01-15T21:57:55.280Z,0.00
2023-01-15T22:00:22.161Z,0.00
2023-01-15T22:02:49.069Z,0.00
2023-01-15T22:05:16.095Z,0.00
2023-01-15T22:07:42.967Z,0.00
2023-01-15T22:10:10.313Z,0.00
2023-01-15T22:12:37.169Z,0.00
2023-01-15T22:15:04.599Z,0.00
2023-01-15T22:17:31.397Z,0.00
2023-01-15T22:19:58.185Z,0.00
2023-01-15T22:22:25.349Z,0.00
2023-01-15T22:24:52.128Z,0.00
2023-01-15T22:27:18.869Z,0.00
2023-01-15T22:29:45.673Z,0.00
2023-01-15T22:32:14.038Z,0.00
2023-01-15T22:34:40.864Z,0.00
2023-01-15T22:37:07.781Z,0.00
2023-01-15T22:39:34.636Z,0.00
2023-01-15T22:42:01.588Z,0.00
2023-01-15T22:44:28.892Z,0.00
2023-01-15T22:46:55.925Z,0.00
2023-01-15T22:49:22.963Z,0.00
2023-01-15T22:51:50.616Z,0.00
2023-01-15T22:54:19.336Z,0.00
2023-01-15T22:56:46.958Z,0.00
2023-01-15T22:59:15.134Z,0.00
2023-01-15T23:01:43.923Z,0.00
2023-01-15T23:04:16.752Z,0.00
2023-01-15T23:06:44.005Z,0.00
2023-01-15T23:09:11.827Z,0.00
2023-01-15T23:11:38.712Z,0.00
2023-01-15T23:14:07.357Z,0.00
2023-01-15T23:16:34.842Z,0.00
2023-01-15T23:19:01.720Z,0.00
2023-01-15T23:21:29.039Z,0.00
2023-01-15T23:23:57.437Z,0.00
2023-01-15T23:26:26.539Z,0.00
2023-01-15T23:28:53.560Z,0.00
2023-01-15T23:31:21.297Z,0.00
2023-01-15T23:33:48.209Z,0.00
2023-01-15T23:36:15.478Z,0.00
2023-01-15T23:38:43.780Z,0.32
2023-01-15T23:41:14.256Z,0.00
2023-01-15T23:43:42.709Z,0.20
2023-01-15T23:46:14.664Z,0.00
2023-01-15T23:48:41.755Z,0.00
2023-01-15T23:51:08.654Z,0.00
2023-01-15T23:53:35.443Z,0.00
2023-01-15T23:56:05.094Z,0.00
2023-01-15T23:58:32.776Z,0.00
